Дата Пункты Температура Давл., мм. Влажн., % Ветер Погодные явления
Воздуха Воды Направл. Скорость
12.02.15 01:00 Одесса 6.0 2.0 766 64 Пн 6 14 часов
12.02.15 10:00 Одесса 2.0 2.0 766 69 Пн 6 11 часов
12.02.15 07:00 Одесса -3.0 2.0 766 80 Пн 5 08 часов
12.02.15 04:00 Одесса -2.0 2.0 766 77 Пн 7 05 часов
12.02.15 01:00 Одесса -2.0 2.0 765 76 Пн 7 02 часа
11.02.15 10:00 Одесса -2.0 2.0 765 73 Пн 10 23 часа
11.02.15 07:00 Одесса -1.0 2.0 764 75 Пн 7 20 часов
11.02.15 04:00 Одесса -1.0 2.0 763 79 Пн 7 17 часов
11.02.15 01:00 Одесса -1.0 2.0 762 80 Пн 7 14 часов
11.02.15 10:00 Одесса -3.0 2.0 763 76 Пн 7 11 часов
11.02.15 07:00 Одесса -5.0 2.0 762 75 Пн 8 08 часов
11.02.15 04:00 Одесса -6.0 2.0 762 86 Пн-З 4 05 часов
11.02.15 01:00 Одесса -4.0 2.0 762 79 Пн 4 02 часа
10.02.15 10:00 Одесса -4.0 2.0 762 77 Пн 7 23 часа
10.02.15 07:00 Одесса -2.0 2.0 761 79 Пн 5 20 часов
10.02.15 04:00 Одесса -2.0 2.0 760 78 Пн 6 17 часов
10.02.15 01:00 Одесса -1.0 2.0 759 72 Пн 5 14 часов
10.02.15 07:00 Одесса -3.0 2.0 758 78 Пн 2 08 часов
10.02.15 04:00 Одесса -3.0 2.0 757 78 Пн-З 2 05 часов
10.02.15 01:00 Одесса -3.0 2.0 756 80 Пн-З 2 02 часа
Количество строк
431 432 433 434 435 436 437 438 439 440
Page 434 of 491